Tour de France: Live Centre | Startlist | Stage profiles

August Jensen

Human Powered Health

August Jensen is a cyclist from Norway (born August 29th 1991), who currently rides for Human Powered Health (UCI ProTeam).

Information

2022 2021 2020 2019 2018 2017 2016 2015 2014 2013

Human Powered Health (ProTeam) UCI Ranking: 1518 (20pts) UCI: Race days: 39 UCI: Distance: 6.688km
Date Pos GC Race UCI
26.06 DNS Norway RR | CN 2022-06-26Show more
12.06 ZLM Tour | 2.Pro 2022-06-12 Show more
12.06 81 ZLM Tour | Overall 2022-06-12
06.06 104 Ronde van Limburg | 1.1 2022-06-06Show more
04.06 119 Heistse Pijl | 1.1 2022-06-04Show more
29.05 Tour of Norway | 2.Pro 2022-05-29 Show more
29.05 DNF Tour of Norway | Overall 2022-05-29
15.05 Tour de Hongrie | 2.1 2022-05-15 Show more
15.05 49 Tour de Hongrie | Overall 2022-05-15
01.05 Tour of Hellas | 2.1 2022-05-01 Show more
01.05 57 Tour of Hellas | Overall 2022-05-01
15.04 Giro di Sicilia | 2.1 2022-04-15 Show more
15.04 61 Giro di Sicilia | Overall 2022-04-15
01.04 49 Route Adélie de Vitré | 1.1 2022-04-01Show more
27.03 91 La Roue Tourangelle | 1.1 2022-03-27Show more
20.03 36 GP Criquielion | 1.2 2022-03-20Show more
18.03 91 Bredene Koksijde Classic | 1.Pro 2022-03-18Show more
16.03 68 Nokere Koerse | 1.Pro 2022-03-16Show more
20.02 Volta ao Algarve | 2.Pro 2022-02-20 Show more
20.02 69 Volta ao Algarve | Overall 2022-02-20
01.03 87 Le Samyn | 1.1 2022-03-01Show more
27.02 DNF Kuurne-Brussel-Kuurne | 1.Pro 2022-02-27Show more
13.02 Tour of Antalya | 2.1 2022-02-13 Show more
13.02 77 Tour of Antalya | Overall 2022-02-13
12.06 83 81 ZLM Tour | 5th stage 2022-06-12
11.06 95 84 ZLM Tour | 4th stage 2022-06-11
10.06 80 90 ZLM Tour | 3rd stage 2022-06-10
09.06 79 92 ZLM Tour | 2nd stage 2022-06-09
08.06 94 94 ZLM Tour | 1st stage 2022-06-08
25.05 DNF Tour of Norway | 2nd stage 2022-05-25
24.05 101 101 Tour of Norway | 1st stage 2022-05-24
15.05 58 49 Tour de Hongrie | 5th stage 2022-05-15
14.05 26 35 Tour de Hongrie | 4th stage 2022-05-14
13.05 17 36 Tour de Hongrie | 3rd stage 2022-05-13
12.05 86 61 Tour de Hongrie | 2nd stage 2022-05-12
11.05 40 43 Tour de Hongrie | 1st stage 2022-05-11
01.05 51 57 Tour of Hellas | 5th stage 2022-05-01
30.04 12 56 Tour of Hellas | 4th stage 2022-04-30
29.04 14 57 Tour of Hellas | 3rd stage 2022-04-29
28.04 4 64 Tour of Hellas | 2nd stage 2022-04-28
27.04 69 69 Tour of Hellas | 1st stage 2022-04-27
15.04 45 61 Giro di Sicilia | 4th stage 2022-04-15
14.04 75 72 Giro di Sicilia | 3rd stage 2022-04-14
13.04 81 79 Giro di Sicilia | 2nd stage 2022-04-13
12.04 104 104 Giro di Sicilia | 1st stage 2022-04-12
20.02 69 69 Volta ao Algarve | 5th stage 2022-02-20
19.02 69 63 Volta ao Algarve | 4th stage 2022-02-19
18.02 36 67 Volta ao Algarve | 3rd stage 2022-02-18
17.02 66 74 Volta ao Algarve | 2nd stage 2022-02-17
16.02 85 86 Volta ao Algarve | 1st stage 2022-02-16
13.02 145 77 Tour of Antalya | 4th stage 2022-02-13
12.02 53 47 Tour of Antalya | 3rd stage 2022-02-12
11.02 94 84 Tour of Antalya | 2nd stage 2022-02-11
10.02 96 96 Tour of Antalya | 1st stage 2022-02-10